sensor_id;sensor_type;location;lat;lon;timestamp;pressure;altitude;pressure_sealevel;temperature;humidity
13934;BME280;7039;52.168;9.866;2023-04-07T03:45:25;100604.38;;;5.43;59.32
13934;BME280;7039;52.168;9.866;2023-04-07T03:47:52;100596.66;;;5.41;59.29
13934;BME280;7039;52.168;9.866;2023-04-07T03:50:18;100603.72;;;5.35;59.30
13934;BME280;7039;52.168;9.866;2023-04-07T03:52:45;100609.91;;;5.29;59.80
13934;BME280;7039;52.168;9.866;2023-04-07T03:55:12;100600.56;;;5.23;60.31
13934;BME280;7039;52.168;9.866;2023-04-07T03:57:38;100613.63;;;5.19;60.65
13934;BME280;7039;52.168;9.866;2023-04-07T04:00:06;100611.03;;;5.19;60.80
13934;BME280;7039;52.168;9.866;2023-04-07T04:02:34;100616.19;;;5.19;60.78
13934;BME280;7039;52.168;9.866;2023-04-07T04:05:00;100621.47;;;5.16;60.84
13934;BME280;7039;52.168;9.866;2023-04-07T04:07:27;100612.91;;;5.12;60.74
13934;BME280;7039;52.168;9.866;2023-04-07T04:09:53;100608.09;;;4.98;60.84
13934;BME280;7039;52.168;9.866;2023-04-07T04:12:20;100617.66;;;4.95;61.26
13934;BME280;7039;52.168;9.866;2023-04-07T04:14:46;100615.88;;;4.97;61.27
13934;BME280;7039;52.168;9.866;2023-04-07T04:17:13;100622.03;;;4.93;61.24
13934;BME280;7039;52.168;9.866;2023-04-07T04:19:41;100623.81;;;4.91;61.73
13934;BME280;7039;52.168;9.866;2023-04-07T04:22:07;100623.00;;;4.87;61.65
13934;BME280;7039;52.168;9.866;2023-04-07T04:24:34;100618.09;;;4.76;61.88
13934;BME280;7039;52.168;9.866;2023-04-07T04:27:00;100620.63;;;4.79;61.88
13934;BME280;7039;52.168;9.866;2023-04-07T04:29:27;100614.69;;;4.74;61.75
13934;BME280;7039;52.168;9.866;2023-04-07T04:31:53;100622.03;;;4.55;62.72
13934;BME280;7039;52.168;9.866;2023-04-07T04:34:20;100622.22;;;4.48;63.40
13934;BME280;7039;52.168;9.866;2023-04-07T04:36:48;100619.09;;;4.71;62.77
13934;BME280;7039;52.168;9.866;2023-04-07T04:39:14;100625.09;;;4.73;62.50
13934;BME280;7039;52.168;9.866;2023-04-07T04:41:41;100627.94;;;4.60;62.78
13934;BME280;7039;52.168;9.866;2023-04-07T04:44:07;100629.16;;;4.46;63.09
13934;BME280;7039;52.168;9.866;2023-04-07T04:46:34;100627.88;;;4.64;62.70
13934;BME280;7039;52.168;9.866;2023-04-07T04:49:01;100639.28;;;4.53;62.89
13934;BME280;7039;52.168;9.866;2023-04-07T04:51:27;100629.38;;;4.35;63.54
13934;BME280;7039;52.168;9.866;2023-04-07T04:53:55;100638.88;;;4.34;63.64
13934;BME280;7039;52.168;9.866;2023-04-07T04:56:21;100642.16;;;4.41;63.19
13934;BME280;7039;52.168;9.866;2023-04-07T04:58:48;100642.97;;;4.43;62.92
13934;BME280;7039;52.168;9.866;2023-04-07T05:01:15;100639.53;;;4.43;63.10
13934;BME280;7039;52.168;9.866;2023-04-07T05:03:41;100639.44;;;4.47;63.30
13934;BME280;7039;52.168;9.866;2023-04-07T05:06:08;100643.63;;;4.53;62.78
13934;BME280;7039;52.168;9.866;2023-04-07T05:08:34;100635.38;;;4.37;63.51
13934;BME280;7039;52.168;9.866;2023-04-07T05:11:02;100648.97;;;4.45;63.57
13934;BME280;7039;52.168;9.866;2023-04-07T05:13:29;100643.03;;;4.40;63.46
13934;BME280;7039;52.168;9.866;2023-04-07T05:15:55;100649.38;;;4.66;62.82
13934;BME280;7039;52.168;9.866;2023-04-07T05:18:22;100643.22;;;4.70;62.72
13934;BME280;7039;52.168;9.866;2023-04-07T05:20:48;100649.19;;;4.73;62.68
13934;BME280;7039;52.168;9.866;2023-04-07T05:23:15;100662.09;;;4.73;62.38
13934;BME280;7039;52.168;9.866;2023-04-07T05:25:41;100657.81;;;4.72;62.49
13934;BME280;7039;52.168;9.866;2023-04-07T05:28:09;100657.44;;;4.89;62.15
13934;BME280;7039;52.168;9.866;2023-04-07T05:30:36;100660.75;;;4.94;61.76
13934;BME280;7039;52.168;9.866;2023-04-07T05:33:03;100652.22;;;4.91;61.64
13934;BME280;7039;52.168;9.866;2023-04-07T05:35:29;100650.25;;;5.00;61.55
13934;BME280;7039;52.168;9.866;2023-04-07T05:37:56;100662.25;;;5.05;61.31
13934;BME280;7039;52.168;9.866;2023-04-07T05:40:22;100660.63;;;4.99;61.29
13934;BME280;7039;52.168;9.866;2023-04-07T05:42:49;100660.41;;;5.08;61.50
13934;BME280;7039;52.168;9.866;2023-04-07T05:45:17;100659.44;;;5.14;61.35
13934;BME280;7039;52.168;9.866;2023-04-07T05:47:44;100655.78;;;5.21;61.49
13934;BME280;7039;52.168;9.866;2023-04-07T05:50:11;100654.66;;;4.97;61.44
13934;BME280;7039;52.168;9.866;2023-04-07T05:52:38;100656.31;;;4.99;61.69
13934;BME280;7039;52.168;9.866;2023-04-07T05:55:05;100661.91;;;5.18;61.97
13934;BME280;7039;52.168;9.866;2023-04-07T05:57:32;100659.16;;;5.25;61.47
13934;BME280;7039;52.168;9.866;2023-04-07T05:59:59;100667.09;;;5.17;61.85
13934;BME280;7039;52.168;9.866;2023-04-07T06:02:29;100674.13;;;5.46;61.61
13934;BME280;7039;52.168;9.866;2023-04-07T06:04:56;100672.63;;;5.37;61.26
13934;BME280;7039;52.168;9.866;2023-04-07T06:07:22;100680.66;;;5.61;61.04
13934;BME280;7039;52.168;9.866;2023-04-07T06:09:48;100681.94;;;5.77;60.78
13934;BME280;7039;52.168;9.866;2023-04-07T06:12:15;100687.69;;;5.89;60.80
13934;BME280;7039;52.168;9.866;2023-04-07T06:14:42;100680.16;;;5.79;60.71
13934;BME280;7039;52.168;9.866;2023-04-07T06:17:08;100688.88;;;5.77;60.64
13934;BME280;7039;52.168;9.866;2023-04-07T06:19:36;100688.31;;;5.98;60.86
13934;BME280;7039;52.168;9.866;2023-04-07T06:22:02;100699.22;;;6.10;60.56
13934;BME280;7039;52.168;9.866;2023-04-07T06:24:29;100704.34;;;6.11;60.49
13934;BME280;7039;52.168;9.866;2023-04-07T06:26:55;100695.56;;;6.17;60.66
13934;BME280;7039;52.168;9.866;2023-04-07T06:29:22;100701.56;;;6.17;60.45
13934;BME280;7039;52.168;9.866;2023-04-07T06:31:49;100703.34;;;6.15;59.92
13934;BME280;7039;52.168;9.866;2023-04-07T06:34:15;100704.13;;;6.19;59.75
13934;BME280;7039;52.168;9.866;2023-04-07T06:36:43;100694.59;;;6.19;59.64
13934;BME280;7039;52.168;9.866;2023-04-07T06:39:10;100701.50;;;6.20;59.28
13934;BME280;7039;52.168;9.866;2023-04-07T06:41:36;100707.50;;;6.22;59.77
13934;BME280;7039;52.168;9.866;2023-04-07T06:44:08;100709.22;;;6.22;59.42
13934;BME280;7039;52.168;9.866;2023-04-07T06:46:34;100705.91;;;6.17;59.75
13934;BME280;7039;52.168;9.866;2023-04-07T06:49:01;100708.78;;;6.37;59.54
13934;BME280;7039;52.168;9.866;2023-04-07T06:51:27;100709.31;;;6.48;59.52
13934;BME280;7039;52.168;9.866;2023-04-07T06:53:55;100709.94;;;6.57;59.60
13934;BME280;7039;52.168;9.866;2023-04-07T06:56:22;100726.97;;;6.65;59.38
13934;BME280;7039;52.168;9.866;2023-04-07T06:58:49;100716.53;;;6.67;58.85
13934;BME280;7039;52.168;9.866;2023-04-07T07:01:16;100724.00;;;6.78;58.93
13934;BME280;7039;52.168;9.866;2023-04-07T07:03:42;100728.75;;;6.92;58.45
13934;BME280;7039;52.168;9.866;2023-04-07T07:06:09;100725.09;;;6.99;57.90
13934;BME280;7039;52.168;9.866;2023-04-07T07:08:35;100727.25;;;7.39;57.83
13934;BME280;7039;52.168;9.866;2023-04-07T07:11:03;100736.16;;;7.59;57.40
13934;BME280;7039;52.168;9.866;2023-04-07T07:13:30;100732.13;;;7.75;56.72
13934;BME280;7039;52.168;9.866;2023-04-07T07:15:56;100722.69;;;7.72;56.40
13934;BME280;7039;52.168;9.866;2023-04-07T07:18:22;100728.91;;;7.42;56.22
13934;BME280;7039;52.168;9.866;2023-04-07T07:20:49;100727.13;;;7.69;56.64
13934;BME280;7039;52.168;9.866;2023-04-07T07:23:15;100727.81;;;7.74;56.12
13934;BME280;7039;52.168;9.866;2023-04-07T07:25:42;100721.94;;;7.69;56.28
13934;BME280;7039;52.168;9.866;2023-04-07T07:28:10;100729.81;;;7.41;56.51
13934;BME280;7039;52.168;9.866;2023-04-07T07:30:38;100731.03;;;7.56;56.14
13934;BME280;7039;52.168;9.866;2023-04-07T07:33:04;100736.06;;;7.60;56.24
13934;BME280;7039;52.168;9.866;2023-04-07T07:35:31;100732.31;;;7.69;56.07
13934;BME280;7039;52.168;9.866;2023-04-07T07:37:58;100735.75;;;7.94;55.65
13934;BME280;7039;52.168;9.866;2023-04-07T07:40:24;100743.44;;;8.23;55.47
13934;BME280;7039;52.168;9.866;2023-04-07T07:42:50;100744.88;;;8.31;54.59
13934;BME280;7039;52.168;9.866;2023-04-07T07:45:18;100745.81;;;8.54;53.79
13934;BME280;7039;52.168;9.866;2023-04-07T07:47:45;100744.66;;;8.61;53.21
13934;BME280;7039;52.168;9.866;2023-04-07T07:50:11;100732.25;;;8.21;53.62
13934;BME280;7039;52.168;9.866;2023-04-07T07:52:38;100741.97;;;8.41;53.22
13934;BME280;7039;52.168;9.866;2023-04-07T07:55:05;100746.25;;;8.65;53.14
13934;BME280;7039;52.168;9.866;2023-04-07T07:57:31;100749.84;;;9.07;52.27
13934;BME280;7039;52.168;9.866;2023-04-07T07:59:58;100749.59;;;9.13;51.18
13934;BME280;7039;52.168;9.866;2023-04-07T08:02:25;100754.59;;;9.39;49.60
13934;BME280;7039;52.168;9.866;2023-04-07T08:04:55;100756.97;;;9.46;49.31
13934;BME280;7039;52.168;9.866;2023-04-07T08:07:22;100768.69;;;9.56;48.92
13934;BME280;7039;52.168;9.866;2023-04-07T08:09:48;100758.06;;;9.40;48.07
13934;BME280;7039;52.168;9.866;2023-04-07T08:12:15;100757.38;;;9.57;48.62
13934;BME280;7039;52.168;9.866;2023-04-07T08:14:41;100763.59;;;9.95;48.39
13934;BME280;7039;52.168;9.866;2023-04-07T08:17:08;100748.59;;;9.80;48.21
13934;BME280;7039;52.168;9.866;2023-04-07T08:19:35;100760.13;;;10.15;48.58
13934;BME280;7039;52.168;9.866;2023-04-07T08:22:02;100756.97;;;10.28;47.86
13934;BME280;7039;52.168;9.866;2023-04-07T08:24:28;100767.38;;;10.48;47.82
13934;BME280;7039;52.168;9.866;2023-04-07T08:26:55;100760.59;;;10.44;47.25
13934;BME280;7039;52.168;9.866;2023-04-07T08:29:21;100750.41;;;10.58;47.44
13934;BME280;7039;52.168;9.866;2023-04-07T08:31:48;100757.25;;;10.61;47.43
13934;BME280;7039;52.168;9.866;2023-04-07T08:34:14;100759.72;;;10.64;46.81
13934;BME280;7039;52.168;9.866;2023-04-07T08:36:42;100762.31;;;10.64;47.35
13934;BME280;7039;52.168;9.866;2023-04-07T08:39:08;100759.72;;;10.64;47.46
13934;BME280;7039;52.168;9.866;2023-04-07T08:41:36;100758.53;;;10.52;47.24
13934;BME280;7039;52.168;9.866;2023-04-07T08:44:03;100762.44;;;10.42;47.90
13934;BME280;7039;52.168;9.866;2023-04-07T08:46:32;100758.94;;;10.62;46.80
13934;BME280;7039;52.168;9.866;2023-04-07T08:49:00;100761.81;;;10.56;48.50
13934;BME280;7039;52.168;9.866;2023-04-07T08:51:28;100760.22;;;10.72;48.46
13934;BME280;7039;52.168;9.866;2023-04-07T08:54:03;100758.59;;;10.70;48.26
13934;BME280;7039;52.168;9.866;2023-04-07T08:56:31;100763.47;;;10.77;48.06
13934;BME280;7039;52.168;9.866;2023-04-07T08:58:59;100749.41;;;10.80;48.31
13934;BME280;7039;52.168;9.866;2023-04-07T09:01:25;100757.88;;;10.85;47.72
13934;BME280;7039;52.168;9.866;2023-04-07T09:03:53;100758.59;;;10.89;47.55
13934;BME280;7039;52.168;9.866;2023-04-07T09:06:19;100760.13;;;10.93;47.99
13934;BME280;7039;52.168;9.866;2023-04-07T09:08:46;100764.16;;;11.00;48.28
13934;BME280;7039;52.168;9.866;2023-04-07T09:11:13;100765.53;;;11.07;48.09
13934;BME280;7039;52.168;9.866;2023-04-07T09:13:40;100765.00;;;11.37;48.15
13934;BME280;7039;52.168;9.866;2023-04-07T09:16:07;100760.09;;;11.48;47.77
13934;BME280;7039;52.168;9.866;2023-04-07T09:18:33;100772.47;;;11.62;47.63
13934;BME280;7039;52.168;9.866;2023-04-07T09:21:02;100765.41;;;11.64;47.77
13934;BME280;7039;52.168;9.866;2023-04-07T09:23:30;100762.00;;;11.62;47.53
13934;BME280;7039;52.168;9.866;2023-04-07T09:25:58;100773.66;;;11.91;46.71
13934;BME280;7039;52.168;9.866;2023-04-07T09:28:42;100767.94;;;12.18;45.25
13934;BME280;7039;52.168;9.866;2023-04-07T09:31:09;100767.22;;;12.31;44.06
13934;BME280;7039;52.168;9.866;2023-04-07T09:33:35;100763.84;;;12.12;43.96
13934;BME280;7039;52.168;9.866;2023-04-07T09:36:03;100766.50;;;12.45;43.60
13934;BME280;7039;52.168;9.866;2023-04-07T09:38:34;100756.34;;;12.06;42.97
13934;BME280;7039;52.168;9.866;2023-04-07T09:41:04;100765.97;;;12.39;42.83
13934;BME280;7039;52.168;9.866;2023-04-07T09:43:31;100759.50;;;12.28;43.73
13934;BME280;7039;52.168;9.866;2023-04-07T09:46:10;100772.09;;;12.71;43.20
13934;BME280;7039;52.168;9.866;2023-04-07T09:48:37;100768.19;;;12.62;43.27
13934;BME280;7039;52.168;9.866;2023-04-07T09:51:05;100767.53;;;12.90;41.41
13934;BME280;7039;52.168;9.866;2023-04-07T09:53:43;100768.72;;;12.85;42.85
13934;BME280;7039;52.168;9.866;2023-04-07T09:56:10;100766.59;;;13.07;41.52
13934;BME280;7039;52.168;9.866;2023-04-07T09:58:38;100766.84;;;13.34;41.80
13934;BME280;7039;52.168;9.866;2023-04-07T10:01:07;100773.91;;;13.48;41.29
13934;BME280;7039;52.168;9.866;2023-04-07T10:03:35;100762.34;;;13.52;41.85
13934;BME280;7039;52.168;9.866;2023-04-07T10:06:02;100758.06;;;13.20;42.79
13934;BME280;7039;52.168;9.866;2023-04-07T10:08:31;100764.19;;;13.50;42.17
13934;BME280;7039;52.168;9.866;2023-04-07T10:10:59;100767.34;;;13.71;40.88
13934;BME280;7039;52.168;9.866;2023-04-07T10:13:27;100751.13;;;13.65;42.46
13934;BME280;7039;52.168;9.866;2023-04-07T10:15:55;100762.03;;;13.73;42.72
13934;BME280;7039;52.168;9.866;2023-04-07T10:18:25;100760.50;;;13.69;42.29
13934;BME280;7039;52.168;9.866;2023-04-07T10:20:55;100761.00;;;13.45;43.79
13934;BME280;7039;52.168;9.866;2023-04-07T10:23:25;100761.94;;;13.44;41.71
13934;BME280;7039;52.168;9.866;2023-04-07T10:25:54;100760.50;;;13.23;43.08
13934;BME280;7039;52.168;9.866;2023-04-07T10:28:24;100762.72;;;13.30;42.59
13934;BME280;7039;52.168;9.866;2023-04-07T10:30:52;100768.63;;;13.18;42.44
13934;BME280;7039;52.168;9.866;2023-04-07T10:33:43;100756.69;;;13.12;41.98
13934;BME280;7039;52.168;9.866;2023-04-07T10:36:10;100764.16;;;13.20;41.86
13934;BME280;7039;52.168;9.866;2023-04-07T10:38:36;100760.25;;;13.43;42.24
13934;BME280;7039;52.168;9.866;2023-04-07T10:41:30;100758.88;;;13.52;42.22
13934;BME280;7039;52.168;9.866;2023-04-07T10:43:57;100774.63;;;13.66;41.36
13934;BME280;7039;52.168;9.866;2023-04-07T10:46:23;100770.53;;;13.46;42.09
13934;BME280;7039;52.168;9.866;2023-04-07T10:49:09;100770.22;;;13.36;42.32
13934;BME280;7039;52.168;9.866;2023-04-07T10:51:37;100767.97;;;13.30;42.76
13934;BME280;7039;52.168;9.866;2023-04-07T10:54:19;100770.25;;;13.67;42.25
13934;BME280;7039;52.168;9.866;2023-04-07T10:57:06;100776.72;;;14.06;41.97
13934;BME280;7039;52.168;9.866;2023-04-07T10:59:37;100775.19;;;14.02;41.54
13934;BME280;7039;52.168;9.866;2023-04-07T11:02:29;100773.81;;;14.25;41.21
13934;BME280;7039;52.168;9.866;2023-04-07T11:04:56;100767.63;;;14.40;40.89
13934;BME280;7039;52.168;9.866;2023-04-07T11:07:45;100769.41;;;14.39;39.09
13934;BME280;7039;52.168;9.866;2023-04-07T11:10:13;100773.44;;;14.31;40.38
13934;BME280;7039;52.168;9.866;2023-04-07T11:12:40;100774.38;;;14.44;39.92
13934;BME280;7039;52.168;9.866;2023-04-07T11:15:17;100773.78;;;14.53;40.34
13934;BME280;7039;52.168;9.866;2023-04-07T11:17:44;100774.75;;;14.67;40.31
13934;BME280;7039;52.168;9.866;2023-04-07T11:20:12;100774.56;;;14.41;38.73
13934;BME280;7039;52.168;9.866;2023-04-07T11:22:38;100772.50;;;14.46;39.63
13934;BME280;7039;52.168;9.866;2023-04-07T11:25:19;100781.13;;;14.48;39.94
13934;BME280;7039;52.168;9.866;2023-04-07T11:27:45;100773.91;;;14.66;40.07
13934;BME280;7039;52.168;9.866;2023-04-07T11:30:14;100766.25;;;14.63;39.99
13934;BME280;7039;52.168;9.866;2023-04-07T11:32:47;100773.47;;;14.59;40.48
13934;BME280;7039;52.168;9.866;2023-04-07T11:35:15;100780.94;;;14.80;39.91
13934;BME280;7039;52.168;9.866;2023-04-07T11:37:41;100781.88;;;15.48;40.06
13934;BME280;7039;52.168;9.866;2023-04-07T11:40:09;100787.03;;;15.62;38.43
13934;BME280;7039;52.168;9.866;2023-04-07T11:42:36;100787.34;;;15.57;38.14
13934;BME280;7039;52.168;9.866;2023-04-07T11:45:04;100775.63;;;15.36;37.40
13934;BME280;7039;52.168;9.866;2023-04-07T11:47:34;100774.66;;;15.37;39.09
13934;BME280;7039;52.168;9.866;2023-04-07T11:50:01;100769.72;;;15.32;38.50
13934;BME280;7039;52.168;9.866;2023-04-07T11:52:39;100778.19;;;15.50;38.01
13934;BME280;7039;52.168;9.866;2023-04-07T11:55:15;100780.19;;;15.74;38.96
13934;BME280;7039;52.168;9.866;2023-04-07T11:57:42;100774.81;;;15.48;38.59
13934;BME280;7039;52.168;9.866;2023-04-07T12:00:10;100781.66;;;15.91;38.69
13934;BME280;7039;52.168;9.866;2023-04-07T12:02:37;100765.75;;;15.79;38.49
13934;BME280;7039;52.168;9.866;2023-04-07T12:05:06;100768.75;;;15.60;38.69
13934;BME280;7039;52.168;9.866;2023-04-07T12:07:35;100776.66;;;15.60;39.26
13934;BME280;7039;52.168;9.866;2023-04-07T12:10:17;100775.06;;;15.58;39.15
13934;BME280;7039;52.168;9.866;2023-04-07T12:12:44;100781.34;;;15.82;38.64
13934;BME280;7039;52.168;9.866;2023-04-07T12:15:11;100784.31;;;16.29;38.36
13934;BME280;7039;52.168;9.866;2023-04-07T12:17:43;100773.66;;;16.43;37.17
13934;BME280;7039;52.168;9.866;2023-04-07T12:20:10;100778.69;;;16.59;37.93
13934;BME280;7039;52.168;9.866;2023-04-07T12:22:39;100779.25;;;16.39;37.92
13934;BME280;7039;52.168;9.866;2023-04-07T12:25:06;100776.72;;;16.50;38.24
13934;BME280;7039;52.168;9.866;2023-04-07T12:27:32;100775.25;;;16.20;38.30
13934;BME280;7039;52.168;9.866;2023-04-07T12:29:59;100767.47;;;16.19;38.09
13934;BME280;7039;52.168;9.866;2023-04-07T12:32:25;100774.72;;;16.28;37.85
13934;BME280;7039;52.168;9.866;2023-04-07T12:34:53;100772.09;;;16.41;37.48
13934;BME280;7039;52.168;9.866;2023-04-07T12:37:19;100779.78;;;17.06;35.98
13934;BME280;7039;52.168;9.866;2023-04-07T12:39:47;100779.09;;;17.16;35.81
13934;BME280;7039;52.168;9.866;2023-04-07T12:42:14;100774.22;;;17.22;37.24
13934;BME280;7039;52.168;9.866;2023-04-07T12:44:40;100771.94;;;17.18;36.48
13934;BME280;7039;52.168;9.866;2023-04-07T12:47:07;100778.13;;;16.93;36.45
13934;BME280;7039;52.168;9.866;2023-04-07T12:49:33;100782.44;;;17.30;36.08
13934;BME280;7039;52.168;9.866;2023-04-07T12:52:00;100774.88;;;17.37;36.52
13934;BME280;7039;52.168;9.866;2023-04-07T12:54:26;100769.31;;;17.53;35.79
13934;BME280;7039;52.168;9.866;2023-04-07T12:56:55;100774.97;;;17.84;35.28
13934;BME280;7039;52.168;9.866;2023-04-07T12:59:22;100771.66;;;17.80;36.14
13934;BME280;7039;52.168;9.866;2023-04-07T13:01:49;100779.81;;;18.01;35.26
13934;BME280;7039;52.168;9.866;2023-04-07T13:04:16;100777.06;;;18.36;36.34
13934;BME280;7039;52.168;9.866;2023-04-07T13:06:42;100778.88;;;18.47;35.02
13934;BME280;7039;52.168;9.866;2023-04-07T13:09:09;100771.53;;;18.73;35.30
13934;BME280;7039;52.168;9.866;2023-04-07T13:11:35;100766.00;;;17.98;36.86
13934;BME280;7039;52.168;9.866;2023-04-07T13:14:03;100764.97;;;17.76;36.84
13934;BME280;7039;52.168;9.866;2023-04-07T13:16:31;100774.75;;;17.98;36.26
13934;BME280;7039;52.168;9.866;2023-04-07T13:18:59;100772.63;;;18.60;34.89
13934;BME280;7039;52.168;9.866;2023-04-07T13:21:26;100777.66;;;19.40;34.94
13934;BME280;7039;52.168;9.866;2023-04-07T13:23:53;100783.75;;;19.73;33.68
13934;BME280;7039;52.168;9.866;2023-04-07T13:26:19;100781.00;;;19.95;33.22
13934;BME280;7039;52.168;9.866;2023-04-07T13:28:46;100774.81;;;20.68;32.92
13934;BME280;7039;52.168;9.866;2023-04-07T13:31:14;100778.56;;;20.65;32.09
13934;BME280;7039;52.168;9.866;2023-04-07T13:33:40;100786.44;;;20.96;32.15
13934;BME280;7039;52.168;9.866;2023-04-07T13:36:07;100777.00;;;21.32;31.54
13934;BME280;7039;52.168;9.866;2023-04-07T13:38:34;100773.91;;;20.98;30.68
13934;BME280;7039;52.168;9.866;2023-04-07T13:41:01;100772.16;;;21.57;31.78
13934;BME280;7039;52.168;9.866;2023-04-07T13:43:28;100776.22;;;21.51;31.59
13934;BME280;7039;52.168;9.866;2023-04-07T13:45:54;100777.16;;;21.31;31.74
13934;BME280;7039;52.168;9.866;2023-04-07T13:48:22;100782.31;;;21.13;31.68
13934;BME280;7039;52.168;9.866;2023-04-07T13:50:49;100780.13;;;21.57;30.94
13934;BME280;7039;52.168;9.866;2023-04-07T13:53:15;100771.69;;;21.22;31.68
13934;BME280;7039;52.168;9.866;2023-04-07T13:55:42;100775.53;;;19.87;32.35
13934;BME280;7039;52.168;9.866;2023-04-07T13:58:10;100775.66;;;20.68;31.34
13934;BME280;7039;52.168;9.866;2023-04-07T14:00:36;100788.16;;;22.23;30.92
13934;BME280;7039;52.168;9.866;2023-04-07T14:03:04;100779.41;;;21.74;30.43
13934;BME280;7039;52.168;9.866;2023-04-07T14:05:32;100785.50;;;22.04;30.08
13934;BME280;7039;52.168;9.866;2023-04-07T14:08:00;100785.44;;;23.16;28.93
13934;BME280;7039;52.168;9.866;2023-04-07T14:10:26;100777.91;;;23.65;28.29
13934;BME280;7039;52.168;9.866;2023-04-07T14:12:53;100778.16;;;23.54;28.68
13934;BME280;7039;52.168;9.866;2023-04-07T14:15:20;100777.25;;;24.42;27.77
13934;BME280;7039;52.168;9.866;2023-04-07T14:17:46;100764.22;;;23.60;28.25
13934;BME280;7039;52.168;9.866;2023-04-07T14:20:13;100779.19;;;23.61;28.48
13934;BME280;7039;52.168;9.866;2023-04-07T14:22:41;100776.72;;;24.72;27.33
13934;BME280;7039;52.168;9.866;2023-04-07T14:25:07;100778.56;;;25.72;26.28
13934;BME280;7039;52.168;9.866;2023-04-07T14:27:34;100773.81;;;23.71;27.99
13934;BME280;7039;52.168;9.866;2023-04-07T14:30:01;100780.09;;;24.14;28.20
13934;BME280;7039;52.168;9.866;2023-04-07T14:32:28;100774.97;;;24.89;26.90
13934;BME280;7039;52.168;9.866;2023-04-07T14:34:54;100772.88;;;25.26;26.87
13934;BME280;7039;52.168;9.866;2023-04-07T14:37:23;100765.06;;;24.73;26.89
13934;BME280;7039;52.168;9.866;2023-04-07T14:39:52;100772.91;;;23.08;28.54
13934;BME280;7039;52.168;9.866;2023-04-07T14:42:18;100775.78;;;23.15;28.79
13934;BME280;7039;52.168;9.866;2023-04-07T14:44:45;100768.25;;;22.65;29.26
13934;BME280;7039;52.168;9.866;2023-04-07T14:47:12;100773.06;;;24.39;27.04
13934;BME280;7039;52.168;9.866;2023-04-07T14:49:38;100765.38;;;24.70;26.36
13934;BME280;7039;52.168;9.866;2023-04-07T14:52:04;100764.88;;;25.34;25.81
13934;BME280;7039;52.168;9.866;2023-04-07T14:54:31;100767.22;;;24.70;27.50
13934;BME280;7039;52.168;9.866;2023-04-07T14:56:59;100774.59;;;24.42;26.95
13934;BME280;7039;52.168;9.866;2023-04-07T14:59:25;100769.88;;;22.76;28.07
13934;BME280;7039;52.168;9.866;2023-04-07T15:01:52;100773.25;;;23.85;27.50
13934;BME280;7039;52.168;9.866;2023-04-07T15:04:18;100784.69;;;23.24;28.23
13934;BME280;7039;52.168;9.866;2023-04-07T15:06:44;100779.44;;;24.46;27.21
13934;BME280;7039;52.168;9.866;2023-04-07T15:09:11;100784.03;;;24.28;27.10
13934;BME280;7039;52.168;9.866;2023-04-07T15:11:38;100772.75;;;24.76;26.84
13934;BME280;7039;52.168;9.866;2023-04-07T15:14:06;100782.13;;;24.20;27.39
13934;BME280;7039;52.168;9.866;2023-04-07T15:16:32;100784.81;;;24.97;27.03
13934;BME280;7039;52.168;9.866;2023-04-07T15:18:59;100774.53;;;24.33;26.93
13934;BME280;7039;52.168;9.866;2023-04-07T15:21:25;100774.47;;;24.17;26.71
13934;BME280;7039;52.168;9.866;2023-04-07T15:23:52;100781.41;;;25.21;26.11
13934;BME280;7039;52.168;9.866;2023-04-07T15:26:19;100772.22;;;23.24;27.33
13934;BME280;7039;52.168;9.866;2023-04-07T15:28:45;100783.09;;;23.85;27.08
13934;BME280;7039;52.168;9.866;2023-04-07T15:31:13;100773.38;;;24.36;26.79
13934;BME280;7039;52.168;9.866;2023-04-07T15:33:40;100775.19;;;24.01;27.26
13934;BME280;7039;52.168;9.866;2023-04-07T15:36:08;100784.28;;;23.90;26.33
13934;BME280;7039;52.168;9.866;2023-04-07T15:38:35;100781.72;;;23.09;27.57
13934;BME280;7039;52.168;9.866;2023-04-07T15:41:03;100780.31;;;22.87;27.32
13934;BME280;7039;52.168;9.866;2023-04-07T15:43:29;100783.84;;;23.41;27.45
13934;BME280;7039;52.168;9.866;2023-04-07T15:45:56;100784.72;;;22.96;27.91
13934;BME280;7039;52.168;9.866;2023-04-07T15:48:23;100789.47;;;23.56;27.33
13934;BME280;7039;52.168;9.866;2023-04-07T15:50:52;100788.75;;;23.28;28.29
13934;BME280;7039;52.168;9.866;2023-04-07T15:53:18;100793.81;;;23.03;27.61
13934;BME280;7039;52.168;9.866;2023-04-07T15:55:45;100789.94;;;23.51;27.94
13934;BME280;7039;52.168;9.866;2023-04-07T15:58:11;100792.69;;;24.04;26.86
13934;BME280;7039;52.168;9.866;2023-04-07T16:00:38;100788.78;;;23.72;27.58
13934;BME280;7039;52.168;9.866;2023-04-07T16:03:05;100794.03;;;23.82;27.21
13934;BME280;7039;52.168;9.866;2023-04-07T16:05:33;100797.00;;;23.25;27.54
13934;BME280;7039;52.168;9.866;2023-04-07T16:07:59;100796.84;;;21.96;28.65
13934;BME280;7039;52.168;9.866;2023-04-07T16:10:26;100800.09;;;22.47;28.67
13934;BME280;7039;52.168;9.866;2023-04-07T16:12:52;100799.81;;;21.83;29.17
13934;BME280;7039;52.168;9.866;2023-04-07T16:15:19;100806.31;;;22.08;28.32
13934;BME280;7039;52.168;9.866;2023-04-07T16:17:46;100807.34;;;21.88;28.76
13934;BME280;7039;52.168;9.866;2023-04-07T16:20:13;100809.53;;;22.02;29.23
13934;BME280;7039;52.168;9.866;2023-04-07T16:22:42;100808.38;;;20.98;29.90
13934;BME280;7039;52.168;9.866;2023-04-07T16:25:10;100804.03;;;20.87;29.61
13934;BME280;7039;52.168;9.866;2023-04-07T16:27:36;100808.47;;;20.77;29.91
13934;BME280;7039;52.168;9.866;2023-04-07T16:30:03;100813.47;;;21.40;29.76
13934;BME280;7039;52.168;9.866;2023-04-07T16:32:30;100809.03;;;20.50;30.39
13934;BME280;7039;52.168;9.866;2023-04-07T16:34:57;100815.47;;;19.84;31.45
13934;BME280;7039;52.168;9.866;2023-04-07T16:37:23;100816.38;;;20.15;31.17
13934;BME280;7039;52.168;9.866;2023-04-07T16:39:53;100823.50;;;20.45;30.62
13934;BME280;7039;52.168;9.866;2023-04-07T16:42:20;100815.16;;;20.19;30.91
13934;BME280;7039;52.168;9.866;2023-04-07T16:44:47;100825.03;;;20.17;31.14
13934;BME280;7039;52.168;9.866;2023-04-07T16:47:13;100832.00;;;19.97;31.50
13934;BME280;7039;52.168;9.866;2023-04-07T16:49:39;100836.44;;;20.60;30.70
13934;BME280;7039;52.168;9.866;2023-04-07T16:52:06;100837.19;;;20.72;30.75